METAR Data
IDs: Format: Raw Decoded Include TAF

Data at: 0303 UTC 20 Jan 2022

ZBAD 200230Z 19003MPS 140V220 8000 -SN FEW015 M04/M07 Q1036 NOSIG